| time (UTC) | temp F | wind direction | speed MPH | gust MPH | rain 1hr in | rain 24hr in | rain mn in | humidity % | barometer mb |
| 20260509211416 | 82 | 203 | 3.0 | 6.0 | 0.00 | 0.04 | 0.02 | 48 | 1007.4 |
| 20260509210417 | 82 | 203 | 4.0 | 8.0 | 0.00 | 0.04 | 0.02 | 46 | 1007.4 |
| 20260509205417 | 82 | 293 | 5.0 | 7.0 | 0.00 | 0.04 | 0.02 | 45 | 1007.5 |
| 20260509204417 | 82 | 293 | 4.0 | 6.0 | 0.00 | 0.04 | 0.02 | 44 | 1007.8 |
| 20260509203417 | 82 | 270 | 2.0 | 3.0 | 0.00 | 0.04 | 0.02 | 48 | 1007.8 |
| 20260509202417 | 81 | 270 | 2.0 | 4.0 | 0.00 | 0.04 | 0.02 | 45 | 1007.8 |
| 20260509201417 | 0 | 0.0 | 0.0 | 0.00 | 0.04 | 0.02 | |||
| 20260509200417 | 0 | 0.0 | 0.0 | 0.00 | 0.04 | 0.02 | |||
| 20260509195444 | 82 | 0.0 | 0.0 | 0.00 | 0.04 | 0.02 | 49 | 1008.1 | |
| 20260509195321 | 82 | 338 | 1.0 | 1.0 | 0.00 | 0.04 | 0.02 | 49 | 1008.2 |
| 20260509194317 | 81 | 315 | 5.0 | 6.0 | 0.00 | 0.04 | 0.02 | 51 | 1008.3 |
| 20260509193317 | 81 | 270 | 5.0 | 8.0 | 0.00 | 0.04 | 0.02 | 48 | 1008.3 |
| 20260509192317 | 81 | 293 | 6.0 | 9.0 | 0.00 | 0.04 | 0.02 | 49 | 1008.2 |
| 20260509191317 | 81 | 293 | 7.0 | 9.0 | 0.00 | 0.04 | 0.02 | 52 | 1008.4 |
| 20260509190337 | 81 | 270 | 3.0 | 5.0 | 0.00 | 0.04 | 0.02 | 49 | 1008.5 |
| 20260509185317 | 81 | 248 | 4.0 | 7.0 | 0.00 | 0.04 | 0.02 | 53 | 1008.6 |
| 20260509184317 | 81 | 270 | 2.0 | 4.0 | 0.00 | 0.04 | 0.02 | 48 | 1008.7 |
| 20260509183317 | 81 | 293 | 2.0 | 5.0 | 0.00 | 0.04 | 0.02 | 51 | 1008.8 |
| 20260509182317 | 81 | 270 | 3.0 | 6.0 | 0.00 | 0.04 | 0.02 | 55 | 1009.0 |
| 20260509181317 | 80 | 225 | 5.0 | 10.0 | 0.00 | 0.04 | 0.02 | 55 | 1009.0 |
| 20260509180317 | 80 | 270 | 2.0 | 7.0 | 0.00 | 0.04 | 0.02 | 53 | 1009.1 |
| 20260509175317 | 78 | 293 | 1.0 | 3.0 | 0.00 | 0.04 | 0.02 | 52 | 1009.1 |
| 20260509174317 | 78 | 270 | 6.0 | 10.0 | 0.00 | 0.04 | 0.02 | 53 | 1009.1 |
| 20260509173317 | 78 | 248 | 2.0 | 4.0 | 0.00 | 0.04 | 0.02 | 53 | 1009.2 |
| 20260509172317 | 77 | 270 | 2.0 | 3.0 | 0.00 | 0.04 | 0.02 | 53 | 1009.4 |
| 20260509171317 | 77 | 270 | 4.0 | 7.0 | 0.00 | 0.04 | 0.02 | 52 | 1009.5 |
| 20260509170317 | 77 | 248 | 3.0 | 6.0 | 0.00 | 0.04 | 0.02 | 52 | 1009.6 |
| 20260509165359 | 76 | 293 | 3.0 | 3.0 | 0.00 | 0.04 | 0.02 | 55 | 1009.5 |
| 20260509165242 | 76 | 0.0 | 0.0 | 0.00 | 0.04 | 0.02 | 54 | 1009.5 | |
| 20260509165126 | 76 | 0.0 | 0.0 | 0.00 | 0.04 | 0.02 | 54 | 1009.6 | |
| 20260509165009 | 76 | 270 | 3.0 | 3.0 | 0.00 | 0.04 | 0.02 | 54 | 1009.6 |
| 20260509164017 | 76 | 293 | 4.0 | 5.0 | 0.00 | 0.04 | 0.02 | 56 | 1009.7 |
| 20260509163017 | 75 | 270 | 4.0 | 7.0 | 0.00 | 0.04 | 0.02 | 54 | 1009.6 |
| 20260509162018 | 75 | 248 | 3.0 | 4.0 | 0.00 | 0.04 | 0.02 | 55 | 1009.4 |
| 20260509161017 | 74 | 293 | 2.0 | 4.0 | 0.00 | 0.04 | 0.02 | 56 | 1009.4 |
| 20260509160020 | 74 | 293 | 2.0 | 5.0 | 0.00 | 0.04 | 0.02 | 57 | 1009.4 |
| 20260509155127 | 73 | 0.0 | 0.0 | 0.00 | 0.04 | 0.02 | 61 | 1009.4 | |
| 20260509154929 | 73 | 0.0 | 0.0 | 0.00 | 0.04 | 0.02 | 61 | 1009.3 | |
| 20260509154732 | 73 | 0.0 | 0.0 | 0.00 | 0.04 | 0.02 | 61 | 1009.3 | |
| 20260509154616 | 73 | 270 | 7.0 | 10.0 | 0.00 | 0.04 | 0.02 | 61 | 1009.4 |
| 20260509153617 | 72 | 293 | 2.0 | 3.0 | 0.00 | 0.04 | 0.02 | 64 | 1009.1 |
| 20260509152637 | 71 | 293 | 4.0 | 7.0 | 0.00 | 0.04 | 0.02 | 60 | 1009.2 |
| 20260509151617 | 71 | 315 | 2.0 | 4.0 | 0.00 | 0.04 | 0.02 | 63 | 1009.1 |
| 20260509150617 | 70 | 315 | 2.0 | 4.0 | 0.00 | 0.04 | 0.02 | 66 | 1009.0 |
| 20260509145617 | 70 | 270 | 4.0 | 6.0 | 0.00 | 0.04 | 0.02 | 69 | 1009.0 |
| 20260509144700 | 69 | 293 | 6.0 | 11.0 | 0.00 | 0.04 | 0.02 | 68 | 1009.0 |
| 20260509144502 | 68 | 0.0 | 0.0 | 0.00 | 0.04 | 0.02 | 68 | 1009.0 | |
| 20260509144341 | 68 | 0.0 | 0.0 | 0.00 | 0.04 | 0.02 | 68 | 1009.0 | |
| 20260509144020 | 68 | 270 | 5.0 | 10.0 | 0.00 | 0.04 | 0.02 | 67 | 1009.1 |
| 20260509143020 | 67 | 293 | 4.0 | 7.0 | 0.00 | 0.04 | 0.02 | 69 | 1008.9 |
| 20260509142020 | 67 | 270 | 4.0 | 6.0 | 0.00 | 0.04 | 0.02 | 71 | 1009.0 |
| 20260509141020 | 66 | 270 | 6.0 | 9.0 | 0.00 | 0.04 | 0.02 | 73 | 1009.2 |
| 20260509140020 | 64 | 293 | 2.0 | 6.0 | 0.00 | 0.04 | 0.02 | 76 | 1009.1 |
| 20260509135020 | 63 | 315 | 2.0 | 6.0 | 0.00 | 0.04 | 0.02 | 80 | 1009.1 |
| 20260509134020 | 62 | 270 | 5.0 | 9.0 | 0.00 | 0.04 | 0.02 | 79 | 1009.0 |
| 20260509133020 | 61 | 293 | 5.0 | 8.0 | 0.00 | 0.04 | 0.02 | 83 | 1009.0 |
| 20260509132020 | 60 | 293 | 2.0 | 4.0 | 0.00 | 0.04 | 0.02 | 87 | 1009.1 |
| 20260509131020 | 58 | 293 | 3.0 | 8.0 | 0.00 | 0.04 | 0.02 | 96 | 1009.0 |
| 20260509130023 | 57 | 0.0 | 0.0 | 0.00 | 0.04 | 0.02 | 97 | 1008.7 | |
| 20260509125905 | 57 | 0.0 | 0.0 | 0.00 | 0.04 | 0.02 | 97 | 1008.7 | |
| 20260509125759 | 57 | 0.0 | 0.0 | 0.00 | 0.04 | 0.02 | 97 | 1008.6 | |
| 20260509125629 | 57 | 0.0 | 0.0 | 0.00 | 0.04 | 0.02 | 97 | 1008.8 | |
| 20260509125440 | 57 | 293 | 1.0 | 3.0 | 0.00 | 0.04 | 0.02 | 97 | 1008.7 |
| 20260509124936 | 57 | 293 | 2.0 | 3.0 | 0.00 | 0.04 | 0.02 | 97 | 1008.9 |
| 20260509123936 | 56 | 270 | 1.0 | 3.0 | 0.00 | 0.04 | 0.02 | 97 | 1008.6 |
| 20260509122916 | 56 | 270 | 1.0 | 2.0 | 0.00 | 0.04 | 0.02 | 97 | 1008.5 |
| 20260509121916 | 56 | 0.0 | 0.0 | 0.00 | 0.04 | 0.02 | 97 | 1008.3 | |
| 20260509120916 | 54 | 0.0 | 0.0 | 0.00 | 0.04 | 0.02 | 97 | 1008.1 | |
| 20260509115916 | 54 | 180 | 1.0 | 3.0 | 0.00 | 0.04 | 0.02 | 97 | 1008.1 |
| 20260509114916 | 52 | 270 | 1.0 | 2.0 | 0.00 | 0.04 | 0.02 | 97 | 1008.0 |
| 20260509113936 | 51 | 0.0 | 1.0 | 0.00 | 0.04 | 0.02 | 97 | 1007.8 | |
| 20260509112916 | 51 | 0.0 | 0.0 | 0.00 | 0.04 | 0.02 | 97 | 1007.5 | |
| 20260509111916 | 51 | 0.0 | 0.0 | 0.00 | 0.04 | 0.02 | 97 | 1007.3 | |
| 20260509110916 | 52 | 0.0 | 0.0 | 0.00 | 0.04 | 0.02 | 97 | 1007.5 | |
| 20260509105936 | 52 | 0.0 | 1.0 | 0.00 | 0.04 | 0.02 | 97 | 1007.4 | |
| 20260509104916 | 52 | 0.0 | 0.0 | 0.00 | 0.04 | 0.02 | 97 | 1007.4 | |
| 20260509103916 | 52 | 0.0 | 1.0 | 0.01 | 0.04 | 0.02 | 97 | 1007.5 | |
| 20260509102936 | 52 | 203 | 1.0 | 1.0 | 0.01 | 0.04 | 0.02 | 97 | 1007.5 |
| 20260509101916 | 52 | 0.0 | 0.0 | 0.01 | 0.04 | 0.02 | 97 | 1007.5 | |
| 20260509100956 | 52 | 0.0 | 1.0 | 0.01 | 0.04 | 0.02 | 97 | 1007.6 | |
| 20260509095916 | 52 | 0.0 | 1.0 | 0.01 | 0.04 | 0.02 | 97 | 1007.7 | |
| 20260509094936 | 52 | 0.0 | 1.0 | 0.01 | 0.04 | 0.02 | 97 | 1007.7 | |
| 20260509093917 | 52 | 0.0 | 1.0 | 0.00 | 0.03 | 0.01 | 97 | 1007.7 | |
| 20260509092916 | 52 | 0.0 | 0.0 | 0.00 | 0.03 | 0.01 | 97 | 1007.9 | |
| 20260509091916 | 53 | 203 | 1.0 | 2.0 | 0.00 | 0.03 | 0.01 | 97 | 1007.8 |
| 20260509090916 | 53 | 203 | 2.0 | 3.0 | 0.00 | 0.03 | 0.01 | 97 | 1007.8 |
| 20260509085916 | 53 | 248 | 1.0 | 2.0 | 0.00 | 0.03 | 0.01 | 97 | 1007.8 |
| 20260509084916 | 53 | 158 | 1.0 | 2.0 | 0.00 | 0.03 | 0.01 | 97 | 1007.7 |
| 20260509083916 | 53 | 225 | 1.0 | 3.0 | 0.00 | 0.03 | 0.01 | 97 | 1007.7 |
| 20260509082916 | 52 | 0.0 | 1.0 | 0.00 | 0.03 | 0.01 | 97 | 1007.7 | |
| 20260509081917 | 52 | 203 | 1.0 | 1.0 | 0.00 | 0.03 | 0.01 | 97 | 1007.8 |
| 20260509080916 | 52 | 225 | 1.0 | 2.0 | 0.00 | 0.03 | 0.01 | 97 | 1007.9 |
| 20260509075916 | 52 | 0.0 | 0.0 | 0.00 | 0.03 | 0.01 | 97 | 1007.8 | |
| 20260509074917 | 52 | 0.0 | 0.0 | 0.00 | 0.03 | 0.01 | 96 | 1007.8 | |
| 20260509073947 | 52 | 0.0 | 0.0 | 0.00 | 0.03 | 0.01 | 96 | 1007.8 | |
| 20260509073716 | 52 | 0.0 | 0.0 | 0.00 | 0.03 | 0.01 | 96 | 1007.8 | |
| 20260509072716 | 53 | 0.0 | 0.0 | 0.00 | 0.03 | 0.01 | 96 | 1007.9 | |
| 20260509071716 | 53 | 0.0 | 1.0 | 0.00 | 0.03 | 0.01 | 96 | 1008.0 | |
| 20260509070716 | 53 | 0.0 | 0.0 | 0.00 | 0.03 | 0.01 | 96 | 1008.1 | |
| 20260509065716 | 53 | 225 | 1.0 | 1.0 | 0.00 | 0.03 | 0.01 | 95 | 1008.2 |
| 20260509064902 | 54 | 0.0 | 0.0 | 0.00 | 0.03 | 0.01 | 96 | 1008.2 | |
| 20260509064316 | 54 | 203 | 1.0 | 1.0 | 0.00 | 0.03 | 0.01 | 96 | 1008.1 |
| 20260509063317 | 54 | 0.0 | 1.0 | 0.00 | 0.03 | 0.01 | 96 | 1008.2 | |
| 20260509062316 | 54 | 0.0 | 1.0 | 0.00 | 0.03 | 0.01 | 96 | 1008.4 | |
| 20260509061337 | 54 | 203 | 1.0 | 2.0 | 0.00 | 0.03 | 0.01 | 96 | 1008.4 |
| 20260509060317 | 54 | 203 | 2.0 | 3.0 | 0.01 | 0.03 | 0.01 | 96 | 1008.5 |
| 20260509055316 | 54 | 0.0 | 1.0 | 0.01 | 0.03 | 0.01 | 96 | 1008.4 | |
| 20260509054317 | 53 | 225 | 1.0 | 2.0 | 0.01 | 0.03 | 0.01 | 96 | 1008.3 |
| 20260509053317 | 53 | 0.0 | 1.0 | 0.01 | 0.03 | 0.01 | 96 | 1008.3 | |
| 20260509052317 | 53 | 0.0 | 0.0 | 0.01 | 0.03 | 0.01 | 96 | 1008.2 | |
| 20260509051318 | 53 | 0.0 | 0.0 | 0.01 | 0.03 | 0.01 | 96 | 1008.2 | |
| 20260509050405 | 53 | 0.0 | 0.0 | 0.00 | 0.02 | 0.00 | 96 | 1008.4 | |
| 20260509045415 | 53 | 0.0 | 0.0 | 0.00 | 0.02 | 0.02 | 95 | 1008.4 | |
| 20260509044415 | 53 | 0.0 | 0.0 | 0.00 | 0.02 | 0.02 | 96 | 1008.5 | |
| 20260509043415 | 53 | 0.0 | 1.0 | 0.00 | 0.02 | 0.02 | 95 | 1008.5 | |
| 20260509042415 | 52 | 0.0 | 0.0 | 0.00 | 0.02 | 0.02 | 95 | 1008.5 | |
| 20260509041459 | 52 | 0.0 | 0.0 | 0.00 | 0.02 | 0.02 | 94 | 1008.7 | |
| 20260509041335 | 52 | 0.0 | 0.0 | 0.00 | 0.02 | 0.02 | 94 | 1008.6 | |
| 20260509041116 | 52 | 0.0 | 0.0 | 0.00 | 0.02 | 0.02 | 94 | 1008.6 | |
| 20260509040135 | 52 | 0.0 | 0.0 | 0.00 | 0.02 | 0.02 | 94 | 1008.7 | |
| 20260509035115 | 53 | 0.0 | 0.0 | 0.00 | 0.02 | 0.02 | 94 | 1008.5 | |
| 20260509034115 | 53 | 0.0 | 0.0 | 0.00 | 0.02 | 0.02 | 95 | 1008.5 | |
| 20260509033115 | 54 | 0.0 | 0.0 | 0.00 | 0.02 | 0.02 | 95 | 1008.6 | |
| 20260509032215 | 53 | 0.0 | 0.0 | 0.00 | 0.02 | 0.02 | 94 | 1008.5 | |
| 20260509032015 | 53 | 0.0 | 0.0 | 0.00 | 0.02 | 0.02 | 94 | 1008.4 | |
| 20260509031015 | 53 | 0.0 | 0.0 | 0.00 | 0.02 | 0.02 | 93 | 1008.4 | |
| 20260509030016 | 54 | 0.0 | 0.0 | 0.00 | 0.02 | 0.02 | 93 | 1008.3 | |
| 20260509025015 | 53 | 0.0 | 0.0 | 0.00 | 0.02 | 0.02 | 92 | 1008.2 | |
| 20260509024036 | 54 | 0.0 | 0.0 | 0.00 | 0.02 | 0.02 | 92 | 1008.0 | |
| 20260509023015 | 54 | 0.0 | 0.0 | 0.00 | 0.02 | 0.02 | 92 | 1008.0 | |
| 20260509022015 | 54 | 0.0 | 0.0 | 0.00 | 0.02 | 0.02 | 90 | 1007.9 | |
| 20260509021015 | 55 | 0.0 | 0.0 | 0.00 | 0.02 | 0.02 | 89 | 1007.9 | |
| 20260509020016 | 56 | 0.0 | 0.0 | 0.00 | 0.02 | 0.02 | 90 | 1007.7 | |
| 20260509015015 | 57 | 0.0 | 0.0 | 0.00 | 0.02 | 0.02 | 89 | 1007.7 | |
| 20260509014015 | 58 | 0.0 | 0.0 | 0.00 | 0.02 | 0.02 | 90 | 1007.6 | |
| 20260509013035 | 58 | 0.0 | 0.0 | 0.00 | 0.02 | 0.02 | 86 | 1007.5 | |
| 20260509012015 | 59 | 0.0 | 0.0 | 0.00 | 0.02 | 0.02 | 85 | 1007.2 | |
| 20260509011016 | 61 | 0.0 | 0.0 | 0.00 | 0.02 | 0.02 | 86 | 1007.1 | |
| 20260509010016 | 62 | 0.0 | 0.0 | 0.00 | 0.02 | 0.02 | 83 | 1007.0 | |
| 20260509005016 | 64 | 0.0 | 1.0 | 0.00 | 0.02 | 0.02 | 80 | 1006.7 | |
| 20260509004016 | 67 | 0.0 | 0.0 | 0.00 | 0.02 | 0.02 | 76 | 1007.0 | |
| 20260509003016 | 67 | 0.0 | 0.0 | 0.00 | 0.02 | 0.02 | 78 | 1006.9 | |
| 20260509002016 | 65 | 0.0 | 0.0 | 0.00 | 0.02 | 0.02 | 80 | 1006.8 | |
| 20260509001016 | 63 | 0.0 | 0.0 | 0.00 | 0.02 | 0.02 | 83 | 1006.8 | |
| 20260509000016 | 63 | 90 | 2.0 | 3.0 | 0.00 | 0.02 | 0.02 | 83 | 1006.6 |
| 20260508235016 | 63 | 158 | 1.0 | 2.0 | 0.00 | 0.02 | 0.02 | 83 | 1006.3 |
| 20260508234016 | 63 | 135 | 3.0 | 5.0 | 0.00 | 0.02 | 0.02 | 82 | 1006.2 |
| 20260508233107 | 63 | 0.0 | 0.0 | 0.00 | 0.02 | 0.02 | 84 | 1006.2 | |
| 20260508232716 | 62 | 113 | 2.0 | 3.0 | 0.00 | 0.02 | 0.02 | 84 | 1006.2 |
| 20260508231716 | 63 | 90 | 3.0 | 4.0 | 0.00 | 0.02 | 0.02 | 83 | 1006.5 |
| 20260508230716 | 62 | 0.0 | 1.0 | 0.00 | 0.02 | 0.02 | 83 | 1006.5 | |
| 20260508225716 | 62 | 0.0 | 0.0 | 0.00 | 0.02 | 0.02 | 85 | 1006.5 | |
| 20260508224716 | 62 | 0 | 2.0 | 3.0 | 0.01 | 0.02 | 0.02 | 84 | 1006.8 |
| 20260508223716 | 63 | 0 | 2.0 | 2.0 | 0.02 | 0.02 | 0.02 | 83 | 1007.0 |
| 20260508222825 | 63 | 0 | 2.0 | 2.0 | 0.02 | 0.02 | 0.02 | 84 | 1007.0 |
| 20260508222416 | 63 | 23 | 3.0 | 5.0 | 0.02 | 0.02 | 0.02 | 84 | 1007.0 |
| 20260508221416 | 63 | 0 | 5.0 | 6.0 | 0.02 | 0.02 | 0.02 | 85 | 1006.9 |
| 20260508220416 | 63 | 23 | 3.0 | 4.0 | 0.02 | 0.02 | 0.02 | 89 | 1007.1 |
| 20260508215416 | 62 | 0 | 3.0 | 5.0 | 0.01 | 0.01 | 0.01 | 84 | 1007.1 |
| 20260508214416 | 63 | 23 | 2.0 | 2.0 | 0.01 | 0.01 | 0.01 | 84 | 1007.1 |
| 20260508213416 | 64 | 0 | 1.0 | 1.0 | 0.00 | 0.00 | 0.00 | 82 | 1007.6 |
| 20260508212416 | 65 | 23 | 2.0 | 3.0 | 0.00 | 0.00 | 0.00 | 79 | 1007.5 |